createdAt,value
2018-12-07T19:20:05.294Z,1.10
2018-12-07T19:21:07.849Z,1.37
2018-12-07T19:22:11.333Z,1.22
2018-12-07T19:23:14.023Z,1.52
2018-12-07T19:24:16.752Z,1.30
2018-12-07T19:25:19.509Z,1.20
2018-12-07T19:26:22.268Z,1.00
2018-12-07T19:27:25.105Z,1.12
2018-12-07T19:28:27.699Z,1.00
2018-12-07T19:29:30.625Z,1.00
2018-12-07T19:30:33.503Z,1.12
2018-12-07T19:31:36.347Z,1.07
2018-12-07T19:32:39.046Z,1.00
2018-12-07T19:33:41.638Z,1.32
2018-12-07T19:34:44.368Z,1.27
2018-12-07T19:35:47.042Z,0.85
2018-12-07T19:36:50.229Z,1.10
2018-12-07T19:37:52.925Z,1.00
2018-12-07T19:38:55.620Z,0.93
2018-12-07T19:39:58.351Z,0.90
2018-12-07T19:41:01.016Z,0.88
2018-12-07T19:42:03.672Z,0.90
2018-12-07T19:43:06.588Z,0.90
2018-12-07T19:44:09.467Z,0.80
2018-12-07T19:45:12.270Z,1.10
2018-12-07T19:46:15.058Z,0.95
2018-12-07T19:47:17.748Z,1.00
2018-12-07T19:48:20.374Z,0.90
2018-12-07T19:49:23.127Z,1.20
2018-12-07T19:50:26.048Z,1.20
2018-12-07T19:51:28.716Z,0.88
2018-12-07T19:52:31.451Z,1.00
2018-12-07T19:53:34.048Z,0.95
2018-12-07T19:54:36.701Z,0.85
2018-12-07T19:55:39.306Z,0.82
2018-12-07T19:56:42.002Z,0.72
2018-12-07T19:57:44.833Z,0.90
2018-12-07T19:58:47.428Z,0.72
2018-12-07T19:59:49.968Z,0.80
2018-12-07T20:00:52.621Z,0.88
2018-12-07T20:01:55.206Z,0.80
2018-12-07T20:02:57.916Z,0.70
2018-12-07T20:04:00.894Z,1.30
2018-12-07T20:05:05.107Z,0.95
2018-12-07T20:06:07.762Z,0.90
2018-12-07T20:07:10.445Z,0.95
2018-12-07T20:08:12.973Z,1.00
2018-12-07T20:09:15.555Z,0.88
2018-12-07T20:10:18.330Z,1.00
2018-12-07T20:11:21.142Z,1.32
2018-12-07T20:12:23.775Z,0.90
2018-12-07T20:13:26.510Z,0.90
2018-12-07T20:14:29.131Z,0.98
2018-12-07T20:15:31.939Z,0.80
2018-12-07T20:16:34.586Z,1.10
2018-12-07T20:17:37.160Z,1.00
2018-12-07T20:18:39.829Z,1.15
2018-12-07T20:19:42.617Z,1.12
2018-12-07T20:20:45.198Z,1.10
2018-12-07T20:21:48.332Z,1.32
2018-12-07T20:22:50.903Z,1.05
2018-12-07T20:23:53.510Z,0.88
2018-12-07T20:24:56.232Z,0.80
2018-12-07T20:25:58.934Z,1.47
2018-12-07T20:27:01.825Z,1.10
2018-12-07T20:28:04.618Z,0.95
2018-12-07T20:29:07.225Z,0.90
2018-12-07T20:30:10.190Z,1.10
2018-12-07T20:31:12.842Z,0.88
2018-12-07T20:32:15.464Z,1.05
2018-12-07T20:33:18.352Z,0.90
2018-12-07T20:34:21.184Z,1.00
2018-12-07T20:35:23.937Z,1.37
2018-12-07T20:36:26.786Z,1.32
2018-12-07T20:37:29.477Z,1.10
2018-12-07T20:38:32.090Z,0.90
2018-12-07T20:39:34.773Z,1.00
2018-12-07T20:40:37.482Z,0.90
2018-12-07T20:41:40.038Z,1.10
2018-12-07T20:42:42.622Z,0.80
2018-12-07T20:43:45.469Z,1.25
2018-12-07T20:44:48.050Z,1.10
2018-12-07T20:45:50.570Z,1.20
2018-12-07T20:46:53.125Z,1.10
2018-12-07T20:47:55.802Z,1.02
2018-12-07T20:48:58.511Z,3.70
2018-12-07T20:50:01.157Z,2.25
2018-12-07T20:51:03.794Z,0.93
2018-12-07T20:52:06.600Z,1.47
2018-12-07T20:53:09.609Z,1.70
2018-12-07T20:54:12.406Z,1.10
2018-12-07T20:55:15.230Z,1.87
2018-12-07T20:56:17.849Z,0.93
2018-12-07T20:57:20.447Z,0.70
2018-12-07T20:58:23.130Z,0.70
2018-12-07T20:59:25.894Z,0.75
2018-12-07T21:00:28.660Z,0.60
2018-12-07T21:01:31.239Z,0.60
2018-12-07T21:02:34.318Z,0.60
2018-12-07T21:03:44.668Z,0.70
2018-12-07T21:04:48.162Z,0.70
2018-12-07T21:06:30.856Z,0.60
2018-12-07T21:07:44.054Z,0.70
2018-12-07T21:09:01.126Z,0.70
2018-12-07T21:12:10.807Z,0.70
2018-12-07T21:13:30.352Z,0.60
2018-12-07T21:14:33.134Z,0.60
2018-12-07T21:15:35.762Z,0.60
2018-12-07T21:17:05.663Z,0.70
2018-12-07T21:18:08.596Z,0.70
2018-12-07T21:19:11.359Z,0.60
2018-12-07T21:20:13.952Z,0.60
2018-12-07T21:21:16.665Z,0.60
2018-12-07T21:22:19.279Z,0.60
2018-12-07T21:23:21.961Z,0.90
2018-12-07T21:24:24.846Z,0.88
2018-12-07T21:25:27.642Z,0.82
2018-12-07T21:26:30.292Z,0.70
2018-12-07T21:27:32.816Z,0.70
2018-12-07T21:28:35.603Z,0.88
2018-12-07T21:29:38.265Z,0.70
2018-12-07T21:30:46.163Z,1.15
2018-12-07T21:31:49.700Z,0.80
2018-12-07T21:32:52.327Z,1.67
2018-12-07T21:33:59.064Z,0.70
2018-12-07T21:35:05.418Z,0.65
2018-12-07T21:36:21.907Z,1.10
2018-12-07T21:37:24.581Z,0.72
2018-12-07T21:38:27.195Z,0.85
2018-12-07T21:39:30.182Z,1.00
2018-12-07T21:40:32.919Z,0.90
2018-12-07T21:41:35.493Z,0.70
2018-12-07T21:42:38.096Z,1.00
2018-12-07T21:43:40.976Z,0.80
2018-12-07T21:44:43.788Z,1.10
2018-12-07T21:45:46.327Z,0.90
2018-12-07T21:46:48.989Z,1.02
2018-12-07T21:48:04.884Z,0.90
2018-12-07T21:49:07.722Z,1.40
2018-12-07T21:50:13.767Z,0.88
2018-12-07T21:51:20.295Z,0.70
2018-12-07T21:52:22.987Z,0.80
2018-12-07T21:53:25.767Z,0.70
2018-12-07T21:54:28.320Z,1.10
2018-12-07T21:55:31.336Z,1.50
2018-12-07T21:56:34.117Z,1.10
2018-12-07T21:57:36.968Z,1.10
2018-12-07T21:58:39.695Z,0.93
2018-12-07T21:59:42.236Z,0.90
2018-12-07T22:00:44.742Z,0.90
2018-12-07T22:01:47.697Z,1.65
2018-12-07T22:02:50.297Z,0.98
2018-12-07T22:03:53.034Z,0.80
2018-12-07T22:04:55.738Z,0.90
2018-12-07T22:05:58.275Z,1.20
2018-12-07T22:07:01.428Z,1.12
2018-12-07T22:08:04.043Z,0.90
2018-12-07T22:09:07.073Z,1.02
2018-12-07T22:10:09.849Z,0.80
2018-12-07T22:11:12.783Z,0.80
2018-12-07T22:12:15.619Z,1.10
2018-12-07T22:13:18.314Z,1.07
2018-12-07T22:14:21.215Z,1.47
2018-12-07T22:15:23.825Z,0.70
2018-12-07T22:16:26.406Z,1.17
2018-12-07T22:17:28.906Z,1.02
2018-12-07T22:18:31.686Z,1.10
2018-12-07T22:19:34.277Z,1.00
2018-12-07T22:20:36.786Z,1.37
2018-12-07T22:21:39.345Z,1.20
2018-12-07T22:22:41.979Z,1.15
2018-12-07T22:23:44.549Z,0.70
2018-12-07T22:24:47.169Z,1.10
2018-12-07T22:25:50.004Z,1.20
2018-12-07T22:26:52.861Z,0.90
2018-12-07T22:27:55.405Z,1.30
2018-12-07T22:28:57.998Z,1.30
2018-12-07T22:30:00.682Z,1.30
2018-12-07T22:31:03.258Z,2.35
2018-12-07T22:32:05.885Z,1.42
2018-12-07T22:33:08.706Z,1.22
2018-12-07T22:34:11.695Z,1.60
2018-12-07T22:35:14.435Z,1.37
2018-12-07T22:36:17.280Z,0.90
2018-12-07T22:37:20.435Z,0.93
2018-12-07T22:38:23.056Z,1.10
2018-12-07T22:39:25.627Z,1.20
2018-12-07T22:40:28.483Z,1.32
2018-12-07T22:41:31.462Z,1.65
2018-12-07T22:42:34.240Z,1.12
2018-12-07T22:43:36.857Z,1.25
2018-12-07T22:44:39.468Z,1.57
2018-12-07T22:45:42.085Z,1.55
2018-12-07T22:46:44.616Z,1.40
2018-12-07T22:47:47.472Z,1.10
2018-12-07T22:48:50.236Z,1.50
2018-12-07T22:49:52.803Z,1.50
2018-12-07T22:50:55.301Z,1.90
2018-12-07T22:51:57.838Z,1.32
2018-12-07T22:53:00.346Z,2.15
2018-12-07T22:54:02.853Z,1.30
2018-12-07T22:55:05.449Z,1.05
2018-12-07T22:56:07.958Z,1.42
2018-12-07T22:57:10.506Z,1.42
2018-12-07T22:58:13.007Z,1.20
2018-12-07T22:59:15.654Z,1.47
2018-12-07T23:00:22.154Z,1.57
2018-12-07T23:01:24.766Z,1.75
2018-12-07T23:02:27.354Z,1.70
2018-12-07T23:03:29.870Z,1.47
2018-12-07T23:04:32.414Z,1.22
2018-12-07T23:05:34.917Z,1.65
2018-12-07T23:06:37.430Z,1.00
2018-12-07T23:07:39.994Z,1.47
2018-12-07T23:08:42.543Z,1.35
2018-12-07T23:09:45.048Z,1.82
2018-12-07T23:10:47.549Z,1.60
2018-12-07T23:11:50.061Z,1.50
2018-12-07T23:12:52.580Z,1.40
2018-12-07T23:13:55.123Z,1.80
2018-12-07T23:14:57.665Z,2.67
2018-12-07T23:16:00.173Z,1.65
2018-12-07T23:17:02.690Z,1.40
2018-12-07T23:18:05.195Z,2.02
2018-12-07T23:19:07.753Z,1.70
2018-12-07T23:20:10.358Z,1.62
2018-12-07T23:21:12.857Z,1.30
2018-12-07T23:22:15.399Z,1.50
2018-12-07T23:23:17.918Z,2.30
2018-12-07T23:24:20.414Z,1.60
2018-12-07T23:25:22.914Z,1.60
2018-12-07T23:26:25.446Z,1.80
2018-12-07T23:27:27.953Z,2.10
2018-12-07T23:28:30.463Z,1.67
2018-12-07T23:29:32.965Z,1.80
2018-12-07T23:30:35.466Z,1.95
2018-12-07T23:31:38.009Z,2.02
2018-12-07T23:32:40.524Z,2.47
2018-12-07T23:33:43.025Z,1.95
2018-12-07T23:34:45.545Z,2.20
2018-12-07T23:35:48.182Z,1.80
2018-12-07T23:36:50.741Z,1.65
2018-12-07T23:37:53.290Z,1.85
2018-12-07T23:38:55.802Z,1.70
2018-12-07T23:39:58.309Z,2.50
2018-12-07T23:41:00.811Z,2.00
2018-12-07T23:42:03.313Z,2.22
2018-12-07T23:43:07.854Z,1.90
2018-12-07T23:44:10.445Z,2.50
2018-12-07T23:45:12.953Z,2.22
2018-12-07T23:46:15.493Z,2.10
2018-12-07T23:47:17.993Z,2.00
2018-12-07T23:48:20.530Z,2.00
2018-12-07T23:49:23.038Z,2.37
2018-12-07T23:50:25.553Z,2.08
2018-12-07T23:51:28.159Z,1.90
2018-12-07T23:52:30.709Z,2.12
2018-12-07T23:53:33.253Z,2.17
2018-12-07T23:54:35.762Z,2.20
2018-12-07T23:55:38.266Z,2.27
2018-12-07T23:56:40.772Z,2.00
2018-12-07T23:57:43.278Z,1.50
2018-12-07T23:58:46.208Z,1.82
2018-12-07T23:59:48.806Z,2.00
